Our Hubs

Dublin
  • EIDW 091930Z 10006KT CAVOK 09/07 Q1023 NOSIG
    METAR
  • EIDWAirport ICAO
  • Krzysztof H. BlaszkowHUB Manager
  • SP-OJL , SP-SCZ , EJ-IAWH , EI-AKHAircraft Based
  • ViewStats
Gdansk im. Lecha Walesy
  • EPGD 091930Z 28009KT CAVOK 07/01 Q1021
    METAR
  • EPGDAirport ICAO
  • Krzysztof H. BlaszkowHUB Manager
  • SP-MVL , SP-RYD , SP-DCX , LC-LXZAircraft Based
  • ViewStats
Warszawa im. Chopina
  • EPWA 091930Z 34013KT CAVOK 14/04 Q1019 NOSIG
    METAR
  • EPWAAirport ICAO
  • Damian BelicaHUB Manager
  • SP-GLO , SP-OSO , SP-JOP , SP-WAW , LC-LXY , SP-OSPAircraft Based
  • ViewStats
Poznan Lawica
  • EPPO 091930Z 34008KT 9999 FEW042 11/03 Q1023
    METAR
  • EPPOAirport ICAO
  • Mark LubuskiHUB Manager
  • SP-GLO , SP-OSO , SP-JOP , SP-WAW , LC-LXY , SP-OSPAircraft Based
  • ViewStats
Katowice Pyrzowice
  • EPKT 091930Z 34009KT CAVOK 14/05 Q1020
    METAR
  • EPKTAirport ICAO
  • Mark LubuskiHUB Manager
  • SP-GSA , SP-WOD , SP-ASA , SP-MVM , SP-JJJAircraft Based
  • ViewStats